Nearby METAR Reports

 

EGSS - Stansted Airport, United Kingdom
Distance from station: NW 15mi, 24km
Updated: 28/05/2020 14:50
Clear
Clear
 Wind from SE
Wind: SE 12 mph , 19 km/h
Temperature: 19°C
Dew Point: 5°C
Humidity: 40%
Barometer: 1034 hPa
Clouds: Clear
Visibility: 6 miles , 10 km
2020/05/28 13:50 EGSS 281350Z AUTO 14010KT 9999 NCD 19/05 Q1034
EGMC - Southend-On-Sea, United Kingdom
Distance from station: SE 15mi, 25km
Updated: 28/05/2020 14:50
Clear
Clear
 Wind from E
Wind: E 14 mph , 22 km/h
Temperature: 18°C
Dew Point: 7°C
Humidity: 49%
Barometer: 1034 hPa
Summary: Clear
Visibility: greater than 7 miles , 10 km
2020/05/28 13:50 EGMC 281350Z 09012KT CAVOK 18/07 Q1034
 
EGLC - London City Airp, United Kingdom
Distance from station: SW 24mi, 39km
Updated: 28/05/2020 14:50
Clear
Clear
 Wind from E
Wind: E 16 mph , 26 km/h
Temperature: 20°C
Dew Point: 3°C
Humidity: 33%
Barometer: 1033 hPa
Clouds: Clear
Visibility: 6 miles , 10 km
2020/05/28 13:50 EGLC 281350Z AUTO 10014KT 9999 NCD 20/03 Q1033
EGUW - Wattisham Raf, United Kingdom
Distance from station: NE 34mi, 54km
Updated: 28/05/2020 14:50
Clear
Clear
 Wind from ESE
Wind: ESE 10 mph , 17 km/h
Temperature: 18°C
Dew Point: 4°C
Humidity: 40%
Barometer: 1034 hPa
Summary: Clear
Visibility: greater than 7 miles , 10 km
2020/05/28 13:50 EGUW 281350Z 12009KT CAVOK 18/04 Q1034 NOSIG RMK BLU BLU
 
EGGW - Luton Airport, United Kingdom
Distance from station: WNW 37mi, 59km
Updated: 28/05/2020 14:50
Clear
Clear
 Wind from E
Wind: E 9 mph , 15 km/h
Temperature: 20°C
Dew Point: 4°C
Humidity: 35%
Barometer: 1033 hPa
Clouds: Clear
Visibility: 6 miles , 10 km
2020/05/28 13:50 EGGW 281350Z AUTO 09008KT 050V130 9999 NCD 20/04 Q1033
EGWU - Northolt Raf, United Kingdom
Distance from station: WSW 40mi, 64km
Updated: 28/05/2020 14:50
Clear
Clear
 Wind from E
Wind: E 14 mph , 22 km/h, Gust: 25 mph , 41 km/h
Temperature: 21°C
Dew Point: 1°C
Humidity: 27%
Barometer: 1033 hPa
Summary: Clear
Visibility: greater than 7 miles , 10 km
2020/05/28 13:50 EGWU 281350Z 10012G22KT CAVOK 21/01 Q1033 NOSIG